createdAt,value
2018-05-26T00:00:06.354Z,28.10
2018-05-26T00:01:06.351Z,31.40
2018-05-26T00:02:06.356Z,35.40
2018-05-26T00:03:06.359Z,40.20
2018-05-26T00:04:27.360Z,28.40
2018-05-26T00:05:06.381Z,23.00
2018-05-26T00:06:06.356Z,27.90
2018-05-26T00:07:06.443Z,52.40
2018-05-26T00:08:06.363Z,56.30
2018-05-26T00:09:06.365Z,48.30
2018-05-26T00:10:27.387Z,38.50
2018-05-26T00:11:06.364Z,33.10
2018-05-26T00:12:06.370Z,33.80
2018-05-26T00:13:06.364Z,21.40
2018-05-26T00:14:06.364Z,22.60
2018-05-26T00:15:06.367Z,21.90
2018-05-26T00:16:27.469Z,25.30
2018-05-26T00:17:06.369Z,22.10
2018-05-26T00:18:06.366Z,21.50
2018-05-26T00:19:06.372Z,23.30
2018-05-26T00:20:06.369Z,22.50
2018-05-26T00:21:06.372Z,23.20
2018-05-26T00:22:27.425Z,25.00
2018-05-26T00:23:06.389Z,21.70
2018-05-26T00:24:06.391Z,23.60
2018-05-26T00:25:06.437Z,20.50
2018-05-26T00:26:06.373Z,27.40
2018-05-26T00:27:06.380Z,20.30
2018-05-26T00:28:27.389Z,20.70
2018-05-26T00:29:06.402Z,20.20
2018-05-26T00:30:06.378Z,25.50
2018-05-26T00:31:07.295Z,22.40
2018-05-26T00:32:06.381Z,29.40
2018-05-26T00:33:06.393Z,26.70
2018-05-26T00:34:27.393Z,25.20
2018-05-26T00:35:06.421Z,27.40
2018-05-26T00:36:06.382Z,32.50
2018-05-26T00:37:06.382Z,42.70
2018-05-26T00:38:06.382Z,35.50
2018-05-26T00:39:06.385Z,34.90
2018-05-26T00:40:27.397Z,39.00
2018-05-26T00:41:06.415Z,27.70
2018-05-26T00:42:06.395Z,19.70
2018-05-26T00:43:06.395Z,24.70
2018-05-26T00:44:06.389Z,21.30
2018-05-26T00:45:06.390Z,26.40
2018-05-26T00:46:27.472Z,25.00
2018-05-26T00:47:06.388Z,27.00
2018-05-26T00:48:06.404Z,26.00
2018-05-26T00:49:06.395Z,25.40
2018-05-26T00:50:06.394Z,29.00
2018-05-26T00:51:06.392Z,28.70
2018-05-26T00:52:27.425Z,24.90
2018-05-26T00:53:06.391Z,25.00
2018-05-26T00:54:06.398Z,35.80
2018-05-26T00:55:06.406Z,26.70
2018-05-26T00:56:06.407Z,28.20
2018-05-26T00:57:06.402Z,25.50
2018-05-26T00:58:27.405Z,26.50
2018-05-26T00:59:06.402Z,29.10
2018-05-26T01:00:06.401Z,27.80
2018-05-26T01:01:06.397Z,27.60
2018-05-26T01:02:06.396Z,25.50
2018-05-26T01:03:06.425Z,26.90
2018-05-26T01:04:27.409Z,23.80
2018-05-26T01:05:06.401Z,27.40
2018-05-26T01:06:06.512Z,26.50
2018-05-26T01:07:06.404Z,31.20
2018-05-26T01:08:06.406Z,34.10
2018-05-26T01:09:06.402Z,29.20
2018-05-26T01:10:27.427Z,30.30
2018-05-26T01:11:06.410Z,28.90
2018-05-26T01:12:06.401Z,27.50
2018-05-26T01:13:06.462Z,29.00
2018-05-26T01:14:06.407Z,24.10
2018-05-26T01:15:06.410Z,35.60
2018-05-26T01:16:27.468Z,24.00
2018-05-26T01:17:06.407Z,25.60
2018-05-26T01:18:06.407Z,25.10
2018-05-26T01:19:06.423Z,22.40
2018-05-26T01:20:06.417Z,24.00
2018-05-26T01:21:06.411Z,23.50
2018-05-26T01:22:27.419Z,33.40
2018-05-26T01:23:06.410Z,26.90
2018-05-26T01:24:06.409Z,26.20
2018-05-26T01:25:06.413Z,24.60
2018-05-26T01:26:06.423Z,22.30
2018-05-26T01:27:06.413Z,23.40
2018-05-26T01:28:27.421Z,20.40
2018-05-26T01:29:06.415Z,27.20
2018-05-26T01:30:06.416Z,29.30
2018-05-26T01:31:06.415Z,27.10
2018-05-26T01:32:06.455Z,25.90
2018-05-26T01:33:06.447Z,30.90
2018-05-26T01:34:27.429Z,26.20
2018-05-26T01:35:06.482Z,25.90
2018-05-26T01:36:06.427Z,24.20
2018-05-26T01:37:06.439Z,26.90
2018-05-26T01:38:06.418Z,23.10
2018-05-26T01:39:06.432Z,23.60
2018-05-26T01:40:27.426Z,24.10
2018-05-26T01:41:06.419Z,25.40
2018-05-26T01:42:06.423Z,30.00
2018-05-26T01:43:06.418Z,25.90
2018-05-26T01:44:06.419Z,24.40
2018-05-26T01:45:06.420Z,24.50
2018-05-26T01:46:27.465Z,24.50
2018-05-26T01:47:06.430Z,22.40
2018-05-26T01:48:06.423Z,23.50
2018-05-26T01:49:06.426Z,24.20
2018-05-26T01:50:06.443Z,24.30
2018-05-26T01:51:06.423Z,26.40
2018-05-26T01:52:27.431Z,28.50
2018-05-26T01:53:06.437Z,24.70
2018-05-26T01:54:06.428Z,28.40
2018-05-26T01:55:06.424Z,31.60
2018-05-26T01:56:06.425Z,25.90
2018-05-26T01:57:06.430Z,26.60
2018-05-26T01:58:27.438Z,32.50
2018-05-26T01:59:06.429Z,27.60
2018-05-26T02:00:06.431Z,24.10
2018-05-26T02:01:06.425Z,25.10
2018-05-26T02:02:06.426Z,29.80
2018-05-26T02:03:06.424Z,27.80
2018-05-26T02:04:27.437Z,27.50
2018-05-26T02:05:06.428Z,30.60
2018-05-26T02:06:06.515Z,34.80
2018-05-26T02:07:06.427Z,29.50
2018-05-26T02:08:06.428Z,31.80
2018-05-26T02:09:06.432Z,28.10
2018-05-26T02:10:27.438Z,28.70
2018-05-26T02:11:06.433Z,29.50
2018-05-26T02:12:06.434Z,26.90
2018-05-26T02:13:06.432Z,27.00
2018-05-26T02:14:06.435Z,32.60
2018-05-26T02:15:06.428Z,30.00
2018-05-26T02:16:27.469Z,30.80
2018-05-26T02:17:06.436Z,32.70
2018-05-26T02:18:06.430Z,31.20
2018-05-26T02:19:06.433Z,30.50
2018-05-26T02:20:06.429Z,29.10
2018-05-26T02:21:06.651Z,34.60
2018-05-26T02:22:27.464Z,30.90
2018-05-26T02:23:06.436Z,34.90
2018-05-26T02:24:06.434Z,30.30
2018-05-26T02:25:06.434Z,32.00
2018-05-26T02:26:06.431Z,28.30
2018-05-26T02:27:06.439Z,28.40
2018-05-26T02:28:27.444Z,31.40
2018-05-26T02:29:06.432Z,27.20
2018-05-26T02:30:06.440Z,28.40
2018-05-26T02:31:06.437Z,30.70
2018-05-26T02:32:06.441Z,32.50
2018-05-26T02:33:06.432Z,30.00
2018-05-26T02:34:27.441Z,29.80
2018-05-26T02:35:06.436Z,30.60
2018-05-26T02:36:06.447Z,28.60
2018-05-26T02:37:06.437Z,27.40
2018-05-26T02:38:06.432Z,28.60
2018-05-26T02:39:06.433Z,30.00
2018-05-26T02:40:27.450Z,28.20
2018-05-26T02:41:06.434Z,33.60
2018-05-26T02:42:06.446Z,29.60
2018-05-26T02:43:06.439Z,32.10
2018-05-26T02:44:06.434Z,33.50
2018-05-26T02:45:06.436Z,29.70
2018-05-26T02:46:27.466Z,31.40
2018-05-26T02:47:06.435Z,34.10
2018-05-26T02:48:06.435Z,33.60
2018-05-26T02:49:06.436Z,31.40
2018-05-26T02:50:06.436Z,35.10
2018-05-26T02:51:06.437Z,34.50
2018-05-26T02:52:27.443Z,33.70
2018-05-26T02:53:06.437Z,32.30
2018-05-26T02:54:06.441Z,33.90
2018-05-26T02:55:06.437Z,33.10
2018-05-26T02:56:06.438Z,39.60
2018-05-26T02:57:06.436Z,37.60
2018-05-26T02:58:27.444Z,37.90
2018-05-26T02:59:06.439Z,35.90
2018-05-26T03:00:06.440Z,41.90
2018-05-26T03:01:06.440Z,37.80
2018-05-26T03:02:06.440Z,42.00
2018-05-26T03:03:06.439Z,44.90
2018-05-26T03:04:27.448Z,46.40
2018-05-26T03:05:06.438Z,42.20
2018-05-26T03:06:06.511Z,48.20
2018-05-26T03:07:06.440Z,43.60
2018-05-26T03:08:06.441Z,47.90
2018-05-26T03:09:06.441Z,48.40
2018-05-26T03:10:27.449Z,46.60
2018-05-26T03:11:06.439Z,39.80
2018-05-26T03:12:06.444Z,42.40
2018-05-26T03:13:06.445Z,43.50
2018-05-26T03:14:06.441Z,44.50
2018-05-26T03:15:06.441Z,43.60
2018-05-26T03:16:27.469Z,43.10
2018-05-26T03:17:06.449Z,40.50
2018-05-26T03:18:42.368Z,38.80
2018-05-26T03:19:06.455Z,40.80
2018-05-26T03:20:06.444Z,39.90
2018-05-26T03:21:27.453Z,45.50
2018-05-26T03:22:06.443Z,48.40
2018-05-26T03:23:06.449Z,48.30
2018-05-26T03:24:06.445Z,46.50
2018-05-26T03:25:06.446Z,46.00
2018-05-26T03:26:06.442Z,39.60
2018-05-26T03:27:27.452Z,44.80
2018-05-26T03:28:06.446Z,41.60
2018-05-26T03:29:06.444Z,36.90
2018-05-26T03:30:06.447Z,43.00
2018-05-26T03:31:06.445Z,41.00
2018-05-26T03:32:06.446Z,38.80
2018-05-26T03:33:27.453Z,37.90
2018-05-26T03:34:06.443Z,41.30
2018-05-26T03:35:06.444Z,41.70
2018-05-26T03:36:06.445Z,40.50
2018-05-26T03:37:06.444Z,42.60
2018-05-26T03:38:06.447Z,41.00
2018-05-26T03:39:27.455Z,44.10
2018-05-26T03:40:06.447Z,43.10
2018-05-26T03:41:06.446Z,46.40
2018-05-26T03:42:06.446Z,43.70
2018-05-26T03:43:06.446Z,37.30
2018-05-26T03:44:06.445Z,46.00
2018-05-26T03:45:27.458Z,44.10
2018-05-26T03:46:06.445Z,42.90
2018-05-26T03:47:06.449Z,41.00
2018-05-26T03:48:06.445Z,36.60
2018-05-26T03:49:06.447Z,38.00
2018-05-26T03:50:06.447Z,37.40
2018-05-26T03:51:27.450Z,38.40
2018-05-26T03:52:06.456Z,34.60
2018-05-26T03:53:06.446Z,34.70
2018-05-26T03:54:06.446Z,34.20
2018-05-26T03:55:06.449Z,35.30
2018-05-26T03:56:06.454Z,32.80
2018-05-26T03:57:27.456Z,36.30
2018-05-26T03:58:06.449Z,40.60
2018-05-26T03:59:06.450Z,40.50
2018-05-26T04:00:06.449Z,42.60
2018-05-26T04:01:06.448Z,45.80
2018-05-26T04:02:06.450Z,47.70
2018-05-26T04:03:27.457Z,47.20
2018-05-26T04:04:06.450Z,70.20
2018-05-26T04:05:06.448Z,84.70
2018-05-26T04:06:06.465Z,101.10
2018-05-26T04:07:06.450Z,95.70
2018-05-26T04:08:06.453Z,96.20
2018-05-26T04:09:27.479Z,92.40
2018-05-26T04:10:06.451Z,87.30
2018-05-26T04:11:06.452Z,93.70
2018-05-26T04:12:06.450Z,91.80
2018-05-26T04:13:06.451Z,63.50
2018-05-26T04:14:06.463Z,57.20
2018-05-26T04:15:27.483Z,53.40
2018-05-26T04:16:06.451Z,52.00
2018-05-26T04:17:06.463Z,46.90
2018-05-26T04:18:06.457Z,43.80
2018-05-26T04:19:06.451Z,40.20
2018-05-26T04:20:06.451Z,35.40
2018-05-26T04:21:27.462Z,37.30
2018-05-26T04:22:06.456Z,34.40
2018-05-26T04:23:06.454Z,37.60
2018-05-26T04:24:06.466Z,40.20
2018-05-26T04:25:06.458Z,36.20
2018-05-26T04:26:06.454Z,37.30
2018-05-26T04:27:27.462Z,35.70
2018-05-26T04:28:06.462Z,34.80
2018-05-26T04:29:06.459Z,35.20
2018-05-26T04:30:06.456Z,35.50
2018-05-26T04:31:06.456Z,33.60
2018-05-26T04:32:06.456Z,43.40
2018-05-26T04:33:27.466Z,34.20
2018-05-26T04:34:06.458Z,34.20
2018-05-26T04:35:06.461Z,39.60
2018-05-26T04:36:06.461Z,36.80
2018-05-26T04:37:06.466Z,35.90
2018-05-26T04:38:06.458Z,34.70
2018-05-26T04:39:27.467Z,30.90
2018-05-26T04:40:06.462Z,44.60
2018-05-26T04:41:06.457Z,39.00
2018-05-26T04:42:06.460Z,38.80
2018-05-26T04:43:06.461Z,35.10
2018-05-26T04:44:06.460Z,37.40
2018-05-26T04:45:27.471Z,31.40
2018-05-26T04:46:06.459Z,38.10
2018-05-26T04:47:06.461Z,37.20
2018-05-26T04:48:06.470Z,31.90
2018-05-26T04:49:06.463Z,33.40
2018-05-26T04:50:06.461Z,28.70
2018-05-26T04:51:27.495Z,29.40
2018-05-26T04:52:06.462Z,31.10
2018-05-26T04:53:06.461Z,29.40
2018-05-26T04:54:06.463Z,37.60
2018-05-26T04:55:06.468Z,30.30
2018-05-26T04:56:06.461Z,34.70
2018-05-26T04:57:27.474Z,30.10
2018-05-26T04:58:06.464Z,37.30
2018-05-26T04:59:06.463Z,34.30
2018-05-26T05:00:06.467Z,33.70
2018-05-26T05:01:06.481Z,38.20
2018-05-26T05:02:06.466Z,39.20
2018-05-26T05:03:27.475Z,37.70
2018-05-26T05:04:06.466Z,44.60
2018-05-26T05:05:06.465Z,33.40
2018-05-26T05:06:06.471Z,34.20
2018-05-26T05:07:06.468Z,38.20
2018-05-26T05:08:06.495Z,32.80
2018-05-26T05:09:27.475Z,33.80
2018-05-26T05:10:06.465Z,33.00
2018-05-26T05:11:06.472Z,34.40
2018-05-26T05:12:06.480Z,37.60
2018-05-26T05:13:06.467Z,40.70
2018-05-26T05:14:06.475Z,40.70
2018-05-26T05:15:27.481Z,47.50
2018-05-26T05:16:06.469Z,50.40
2018-05-26T05:17:06.473Z,55.30
2018-05-26T05:18:06.471Z,57.20
2018-05-26T05:19:06.473Z,65.70
2018-05-26T05:20:06.472Z,61.60
2018-05-26T05:21:27.478Z,64.90
2018-05-26T05:22:06.470Z,67.10
2018-05-26T05:23:06.469Z,69.60
2018-05-26T05:24:06.482Z,90.60
2018-05-26T05:25:06.469Z,104.30
2018-05-26T05:26:06.475Z,104.20
2018-05-26T05:27:27.482Z,100.90
2018-05-26T05:28:06.473Z,76.40
2018-05-26T05:29:06.474Z,71.20
2018-05-26T05:30:06.475Z,73.20
2018-05-26T05:31:06.472Z,47.10
2018-05-26T05:32:06.472Z,47.90
2018-05-26T05:33:27.485Z,43.80
2018-05-26T05:34:06.477Z,36.50
2018-05-26T05:35:06.477Z,32.60
2018-05-26T05:36:06.487Z,30.80
2018-05-26T05:37:06.479Z,32.20
2018-05-26T05:38:06.478Z,39.40
2018-05-26T05:39:27.484Z,34.40
2018-05-26T05:40:06.474Z,30.50
2018-05-26T05:41:06.477Z,34.20
2018-05-26T05:42:06.480Z,29.60
2018-05-26T05:43:06.480Z,28.40
2018-05-26T05:44:06.480Z,32.90
2018-05-26T05:45:27.493Z,27.40
2018-05-26T05:46:06.483Z,27.80
2018-05-26T05:47:06.486Z,28.50
2018-05-26T05:48:06.493Z,29.90
2018-05-26T05:49:06.494Z,30.60
2018-05-26T05:50:06.488Z,31.10
2018-05-26T05:51:27.497Z,27.70
2018-05-26T05:52:06.489Z,28.60
2018-05-26T05:53:06.485Z,31.10
2018-05-26T05:54:06.491Z,27.30
2018-05-26T05:55:06.492Z,27.70
2018-05-26T05:56:06.485Z,26.60
2018-05-26T05:57:27.501Z,27.30
2018-05-26T05:58:06.493Z,25.60
2018-05-26T05:59:06.493Z,27.20
2018-05-26T06:00:06.494Z,26.30
2018-05-26T06:01:06.493Z,26.20
2018-05-26T06:02:06.494Z,26.70
2018-05-26T06:03:27.504Z,26.10
2018-05-26T06:04:06.499Z,31.40
2018-05-26T06:05:06.505Z,37.40
2018-05-26T06:06:06.504Z,34.20
2018-05-26T06:07:06.501Z,44.40
2018-05-26T06:08:06.499Z,62.00
2018-05-26T06:09:27.513Z,70.60
2018-05-26T06:10:06.506Z,82.30
2018-05-26T06:11:06.505Z,86.50
2018-05-26T06:12:06.508Z,81.50
2018-05-26T06:13:06.510Z,70.20
2018-05-26T06:14:06.510Z,65.30
2018-05-26T06:15:27.544Z,55.40
2018-05-26T06:16:06.513Z,77.70
2018-05-26T06:17:06.514Z,82.70
2018-05-26T06:18:06.514Z,71.20
2018-05-26T06:19:06.518Z,63.10
2018-05-26T06:20:06.524Z,63.80
2018-05-26T06:21:27.528Z,57.10
2018-05-26T06:22:06.522Z,43.70
2018-05-26T06:23:06.525Z,50.60
2018-05-26T06:24:06.524Z,47.70
2018-05-26T06:25:06.524Z,40.80
2018-05-26T06:26:06.528Z,41.00
2018-05-26T06:27:27.539Z,42.40
2018-05-26T06:28:06.528Z,35.20
2018-05-26T06:29:06.531Z,32.80
2018-05-26T06:30:06.531Z,26.70
2018-05-26T06:31:06.534Z,25.70
2018-05-26T06:32:06.534Z,24.60
2018-05-26T06:33:27.545Z,24.90
2018-05-26T06:34:06.539Z,24.90
2018-05-26T06:35:06.537Z,23.90
2018-05-26T06:36:06.537Z,24.80
2018-05-26T06:37:06.573Z,25.50
2018-05-26T06:38:06.541Z,25.50
2018-05-26T06:39:27.553Z,25.80
2018-05-26T06:40:06.543Z,23.70
2018-05-26T06:41:06.555Z,25.50
2018-05-26T06:42:06.548Z,24.30
2018-05-26T06:43:06.552Z,25.20
2018-05-26T06:44:06.547Z,25.20
2018-05-26T06:45:27.561Z,26.80
2018-05-26T06:46:06.563Z,26.10
2018-05-26T06:47:06.556Z,23.90
2018-05-26T06:48:06.563Z,30.30
2018-05-26T06:49:06.560Z,28.90
2018-05-26T06:50:06.564Z,22.50
2018-05-26T06:51:27.573Z,21.80
2018-05-26T06:52:06.578Z,22.80
2018-05-26T06:53:06.569Z,23.60
2018-05-26T06:54:06.583Z,22.70
2018-05-26T06:55:06.583Z,22.80
2018-05-26T06:56:06.570Z,20.60
2018-05-26T06:57:27.590Z,21.10
2018-05-26T06:58:06.572Z,22.50
2018-05-26T06:59:06.585Z,21.90
2018-05-26T07:00:06.581Z,21.80
2018-05-26T07:01:06.586Z,21.90
2018-05-26T07:02:06.587Z,24.70
2018-05-26T07:03:27.590Z,24.60
2018-05-26T07:04:06.592Z,26.10
2018-05-26T07:05:06.602Z,27.90
2018-05-26T07:06:06.597Z,28.60
2018-05-26T07:07:06.591Z,23.30
2018-05-26T07:08:06.638Z,23.70
2018-05-26T07:09:27.609Z,26.60
2018-05-26T07:10:06.597Z,24.90
2018-05-26T07:11:06.596Z,24.20
2018-05-26T07:12:06.600Z,26.80
2018-05-26T07:13:06.601Z,24.40
2018-05-26T07:14:06.603Z,25.50
2018-05-26T07:15:27.613Z,24.00
2018-05-26T07:16:06.609Z,24.90
2018-05-26T07:17:06.605Z,26.90
2018-05-26T07:18:06.613Z,27.90
2018-05-26T07:19:06.639Z,31.50
2018-05-26T07:20:06.615Z,34.60
2018-05-26T07:21:27.636Z,41.00
2018-05-26T07:22:06.617Z,43.20
2018-05-26T07:23:06.618Z,39.10
2018-05-26T07:24:06.620Z,37.90
2018-05-26T07:25:06.634Z,38.70
2018-05-26T07:26:06.632Z,38.30
2018-05-26T07:27:27.643Z,37.60
2018-05-26T07:28:06.628Z,36.10
2018-05-26T07:29:06.699Z,35.70
2018-05-26T07:30:06.641Z,33.20
2018-05-26T07:31:06.635Z,33.50
2018-05-26T07:32:06.660Z,34.00
2018-05-26T07:33:27.648Z,32.30
2018-05-26T07:34:06.641Z,33.90
2018-05-26T07:35:06.653Z,34.00
2018-05-26T07:36:06.643Z,33.20
2018-05-26T07:37:06.650Z,33.60
2018-05-26T07:38:06.647Z,35.70
2018-05-26T07:39:27.659Z,37.10
2018-05-26T07:40:06.660Z,35.80
2018-05-26T07:41:06.662Z,33.40
2018-05-26T07:42:06.671Z,33.80
2018-05-26T07:43:06.923Z,31.00
2018-05-26T07:44:06.667Z,28.60
2018-05-26T07:45:27.672Z,28.30
2018-05-26T07:46:06.666Z,25.60
2018-05-26T07:47:06.698Z,29.60
2018-05-26T07:48:06.670Z,41.50
2018-05-26T07:49:06.676Z,44.50
2018-05-26T07:50:06.674Z,24.30
2018-05-26T07:51:27.687Z,23.20
2018-05-26T07:52:06.680Z,23.00
2018-05-26T07:53:06.723Z,23.80
2018-05-26T07:54:06.683Z,22.60
2018-05-26T07:55:06.690Z,23.10
2018-05-26T07:56:06.689Z,22.60
2018-05-26T07:57:27.701Z,25.50
2018-05-26T07:58:06.697Z,22.20
2018-05-26T07:59:06.726Z,22.70
2018-05-26T08:00:06.701Z,21.20
2018-05-26T08:01:06.715Z,23.70
2018-05-26T08:02:06.701Z,21.10
2018-05-26T08:03:27.717Z,20.90
2018-05-26T08:04:06.714Z,21.40
2018-05-26T08:05:06.710Z,22.30
2018-05-26T08:06:06.717Z,23.20
2018-05-26T08:07:06.715Z,29.90
2018-05-26T08:08:06.722Z,25.50
2018-05-26T08:09:27.761Z,21.60
2018-05-26T08:10:06.743Z,22.20
2018-05-26T08:11:06.727Z,22.60
2018-05-26T08:12:06.735Z,26.30
2018-05-26T08:13:06.751Z,23.20
2018-05-26T08:14:06.758Z,23.20
2018-05-26T08:15:27.751Z,23.30
2018-05-26T08:16:07.580Z,25.80
2018-05-26T08:17:06.775Z,25.60
2018-05-26T08:18:06.747Z,24.60
2018-05-26T08:19:06.748Z,23.90
2018-05-26T08:20:06.777Z,24.50
2018-05-26T08:21:27.763Z,24.90
2018-05-26T08:22:06.761Z,289.40
2018-05-26T08:23:06.762Z,126.10
2018-05-26T08:24:06.770Z,105.70
2018-05-26T08:25:06.768Z,51.70
2018-05-26T08:26:06.771Z,23.90
2018-05-26T08:27:27.784Z,24.90
2018-05-26T08:28:06.827Z,37.10
2018-05-26T08:29:06.777Z,28.10
2018-05-26T08:30:06.785Z,26.50
2018-05-26T08:31:06.782Z,31.50
2018-05-26T08:32:06.821Z,24.80
2018-05-26T08:33:27.799Z,24.50
2018-05-26T08:34:06.791Z,27.40
2018-05-26T08:35:06.798Z,26.30
2018-05-26T08:36:06.811Z,21.60
2018-05-26T08:37:06.813Z,23.10
2018-05-26T08:38:06.817Z,19.00
2018-05-26T08:39:27.880Z,34.20
2018-05-26T08:40:06.810Z,159.20
2018-05-26T08:41:06.814Z,43.60
2018-05-26T08:42:06.820Z,38.40
2018-05-26T08:43:06.827Z,40.30
2018-05-26T08:44:06.837Z,36.60
2018-05-26T08:45:27.900Z,41.40
2018-05-26T08:46:06.843Z,33.10
2018-05-26T08:47:06.855Z,28.80
2018-05-26T08:48:06.859Z,33.90
2018-05-26T08:49:06.859Z,23.20
2018-05-26T08:50:06.878Z,34.90
2018-05-26T08:51:27.883Z,24.20
2018-05-26T08:52:06.877Z,19.30
2018-05-26T08:53:06.883Z,18.30
2018-05-26T08:54:06.891Z,24.30
2018-05-26T08:55:06.898Z,19.60
2018-05-26T08:56:06.906Z,26.00
2018-05-26T08:57:27.929Z,21.00
2018-05-26T08:58:06.924Z,19.20
2018-05-26T08:59:06.934Z,20.70
2018-05-26T09:00:06.952Z,22.60
2018-05-26T09:01:06.957Z,20.10
2018-05-26T09:02:06.965Z,20.00
2018-05-26T09:03:27.979Z,23.70
2018-05-26T09:04:07.024Z,18.70
2018-05-26T09:05:06.994Z,15.70
2018-05-26T09:06:06.997Z,15.50
2018-05-26T09:07:07.009Z,14.50
2018-05-26T09:08:07.012Z,16.10
2018-05-26T09:09:28.040Z,14.60
2018-05-26T09:10:07.033Z,11.60
2018-05-26T09:11:07.046Z,12.20
2018-05-26T09:12:07.055Z,15.60
2018-05-26T09:13:07.070Z,17.30
2018-05-26T09:14:07.078Z,39.90
2018-05-26T09:15:28.105Z,13.60
2018-05-26T09:16:07.097Z,10.00
2018-05-26T09:17:07.106Z,24.80
2018-05-26T09:18:07.122Z,7.80
2018-05-26T09:19:07.138Z,10.80
2018-05-26T09:20:07.154Z,12.80
2018-05-26T09:21:28.191Z,14.30
2018-05-26T09:22:07.191Z,10.10
2018-05-26T09:23:07.185Z,8.40
2018-05-26T09:24:07.195Z,9.60
2018-05-26T09:25:07.271Z,11.50
2018-05-26T09:26:07.216Z,10.00
2018-05-26T09:27:28.247Z,8.90
2018-05-26T09:28:07.241Z,9.90
2018-05-26T09:29:07.252Z,11.10
2018-05-26T09:30:07.264Z,11.10
2018-05-26T09:31:07.277Z,10.40
2018-05-26T09:32:07.291Z,9.50
2018-05-26T09:33:28.330Z,9.80
2018-05-26T09:34:07.400Z,8.20
2018-05-26T09:35:07.372Z,9.80
2018-05-26T09:36:07.340Z,10.00
2018-05-26T09:37:07.350Z,9.30
2018-05-26T09:38:07.363Z,9.00
2018-05-26T09:39:28.392Z,9.10
2018-05-26T09:40:07.448Z,8.60
2018-05-26T09:41:07.406Z,10.60
2018-05-26T09:42:07.440Z,13.10
2018-05-26T09:43:07.430Z,10.80
2018-05-26T09:44:07.443Z,21.60
2018-05-26T09:45:28.469Z,12.70
2018-05-26T09:46:07.495Z,23.00
2018-05-26T09:47:07.494Z,9.40
2018-05-26T09:48:07.498Z,9.20
2018-05-26T09:49:07.511Z,8.40
2018-05-26T09:50:07.527Z,9.40
2018-05-26T09:51:28.569Z,10.80
2018-05-26T09:52:07.590Z,10.90
2018-05-26T09:53:07.570Z,9.20
2018-05-26T09:54:07.599Z,10.60
2018-05-26T09:55:07.598Z,10.40
2018-05-26T09:56:07.651Z,9.20
2018-05-26T09:57:28.652Z,9.70
2018-05-26T09:58:07.642Z,9.60
2018-05-26T09:59:07.657Z,10.30
2018-05-26T10:00:07.679Z,14.80
2018-05-26T10:01:07.695Z,11.60
2018-05-26T10:02:07.705Z,14.40
2018-05-26T10:03:28.739Z,13.60
2018-05-26T10:04:07.752Z,14.80
2018-05-26T10:05:07.759Z,13.80
2018-05-26T10:06:07.767Z,12.40
2018-05-26T10:07:07.779Z,13.90
2018-05-26T10:08:07.791Z,13.20
2018-05-26T10:09:28.868Z,13.00
2018-05-26T10:10:07.827Z,16.90
2018-05-26T10:11:07.842Z,14.00
2018-05-26T10:12:07.867Z,14.00
2018-05-26T10:13:07.871Z,14.70
2018-05-26T10:14:07.886Z,14.30
2018-05-26T10:15:28.918Z,16.20
2018-05-26T10:16:07.923Z,17.20
2018-05-26T10:17:07.935Z,17.60
2018-05-26T10:18:07.951Z,17.60
2018-05-26T10:19:07.966Z,17.90
2018-05-26T10:20:07.982Z,17.90
2018-05-26T10:21:29.017Z,16.60
2018-05-26T10:22:08.028Z,18.70
2018-05-26T10:23:08.030Z,15.00
2018-05-26T10:24:08.050Z,16.60
2018-05-26T10:25:08.064Z,12.90
2018-05-26T10:26:08.087Z,14.10
2018-05-26T10:27:29.107Z,13.90
2018-05-26T10:28:08.113Z,11.40
2018-05-26T10:29:08.130Z,10.80
2018-05-26T10:30:08.144Z,11.10
2018-05-26T10:31:08.168Z,12.30
2018-05-26T10:32:08.181Z,10.30
2018-05-26T10:33:29.202Z,10.60
2018-05-26T10:34:08.204Z,9.60
2018-05-26T10:35:08.225Z,9.90
2018-05-26T10:36:08.236Z,9.50
2018-05-26T10:37:08.263Z,8.20
2018-05-26T10:38:08.277Z,9.70
2018-05-26T10:39:29.301Z,8.90
2018-05-26T10:40:08.300Z,8.50
2018-05-26T10:41:08.317Z,7.50
2018-05-26T10:42:08.353Z,9.40
2018-05-26T10:43:08.356Z,9.40
2018-05-26T10:44:08.378Z,6.60
2018-05-26T10:45:29.406Z,9.80
2018-05-26T10:46:08.420Z,7.40
2018-05-26T10:47:08.448Z,9.70
2018-05-26T10:48:08.497Z,11.20
2018-05-26T10:49:08.487Z,8.90
2018-05-26T10:50:08.466Z,12.00
2018-05-26T10:51:29.494Z,7.40
2018-05-26T10:52:08.495Z,8.30
2018-05-26T10:53:08.519Z,8.70
2018-05-26T10:54:08.531Z,8.90
2018-05-26T10:55:08.540Z,9.20
2018-05-26T10:56:08.552Z,10.30
2018-05-26T10:57:29.584Z,12.40
2018-05-26T10:58:08.590Z,7.70
2018-05-26T10:59:08.604Z,7.30
2018-05-26T11:00:08.618Z,8.00
2018-05-26T11:01:08.636Z,8.10
2018-05-26T11:02:08.659Z,9.20
2018-05-26T11:03:29.675Z,7.60
2018-05-26T11:04:08.753Z,7.80
2018-05-26T11:05:08.695Z,8.80
2018-05-26T11:06:08.713Z,9.50
2018-05-26T11:07:08.722Z,7.20
2018-05-26T11:08:08.753Z,9.60
2018-05-26T11:09:29.770Z,7.20
2018-05-26T11:10:08.770Z,5.70
2018-05-26T11:11:08.785Z,5.40
2018-05-26T11:12:08.800Z,5.60
2018-05-26T11:13:08.814Z,5.50
2018-05-26T11:14:08.832Z,6.40
2018-05-26T11:15:29.860Z,6.80
2018-05-26T11:16:09.026Z,8.00
2018-05-26T11:17:08.896Z,10.50
2018-05-26T11:18:08.888Z,6.10
2018-05-26T11:19:08.937Z,7.40
2018-05-26T11:20:08.937Z,8.00
2018-05-26T11:21:29.953Z,5.40
2018-05-26T11:22:08.948Z,7.30
2018-05-26T11:23:08.973Z,8.20
2018-05-26T11:24:09.185Z,7.70
2018-05-26T11:25:08.999Z,8.00
2018-05-26T11:26:09.059Z,6.40
2018-05-26T11:27:30.053Z,17.40
2018-05-26T11:28:09.043Z,15.00
2018-05-26T11:29:09.061Z,15.70
2018-05-26T11:30:09.079Z,15.10
2018-05-26T11:31:09.104Z,9.60
2018-05-26T11:32:09.118Z,15.60
2018-05-26T11:33:30.136Z,21.40
2018-05-26T11:34:09.135Z,12.90
2018-05-26T11:35:09.150Z,13.20
2018-05-26T11:36:09.164Z,11.90
2018-05-26T11:37:09.179Z,9.00
2018-05-26T11:38:09.199Z,11.50
2018-05-26T11:39:30.242Z,6.10
2018-05-26T11:40:09.228Z,9.00
2018-05-26T11:41:09.242Z,7.20
2018-05-26T11:42:09.259Z,7.80
2018-05-26T11:43:09.279Z,10.90
2018-05-26T11:44:09.289Z,11.10
2018-05-26T11:45:30.322Z,9.00
2018-05-26T11:46:09.329Z,9.50
2018-05-26T11:47:09.339Z,9.10
2018-05-26T11:48:09.363Z,10.10
2018-05-26T11:49:09.384Z,7.10
2018-05-26T11:50:09.391Z,8.40
2018-05-26T11:51:30.429Z,5.90
2018-05-26T11:52:09.434Z,9.40
2018-05-26T11:53:09.436Z,7.40
2018-05-26T11:54:09.458Z,9.40
2018-05-26T11:55:09.469Z,8.30
2018-05-26T11:56:09.488Z,8.30
2018-05-26T11:57:30.523Z,18.40
2018-05-26T11:58:09.522Z,9.30
2018-05-26T11:59:09.533Z,27.70
2018-05-26T12:00:09.545Z,9.10
2018-05-26T12:01:10.719Z,17.10
2018-05-26T12:02:09.610Z,12.60
2018-05-26T12:03:30.611Z,9.50
2018-05-26T12:04:09.610Z,9.50
2018-05-26T12:05:09.630Z,10.50
2018-05-26T12:06:09.664Z,14.60
2018-05-26T12:07:09.657Z,8.30
2018-05-26T12:08:09.671Z,8.80
2018-05-26T12:09:30.740Z,12.20
2018-05-26T12:10:09.711Z,8.40
2018-05-26T12:11:09.743Z,9.60
2018-05-26T12:12:09.735Z,7.90
2018-05-26T12:13:09.752Z,6.70
2018-05-26T12:14:09.769Z,7.10
2018-05-26T12:15:30.798Z,9.20
2018-05-26T12:16:09.824Z,11.00
2018-05-26T12:17:09.818Z,9.10
2018-05-26T12:18:09.836Z,7.70
2018-05-26T12:19:09.848Z,9.60
2018-05-26T12:20:09.865Z,8.10
2018-05-26T12:21:30.893Z,10.10
2018-05-26T12:22:09.909Z,8.20
2018-05-26T12:23:09.910Z,9.10
2018-05-26T12:24:09.929Z,8.90
2018-05-26T12:25:10.208Z,7.10
2018-05-26T12:26:09.966Z,7.50
2018-05-26T12:27:30.986Z,8.90
2018-05-26T12:28:09.995Z,8.40
2018-05-26T12:29:10.007Z,12.20
2018-05-26T12:30:10.037Z,10.10
2018-05-26T12:31:10.042Z,7.60
2018-05-26T12:32:10.057Z,6.80
2018-05-26T12:33:31.090Z,9.40
2018-05-26T12:34:10.086Z,6.10
2018-05-26T12:35:10.099Z,20.50
2018-05-26T12:36:10.114Z,9.20
2018-05-26T12:37:10.151Z,9.90
2018-05-26T12:38:10.157Z,7.90
2018-05-26T12:39:31.179Z,10.50
2018-05-26T12:40:10.186Z,7.50
2018-05-26T12:41:10.188Z,8.30
2018-05-26T12:42:10.207Z,7.10
2018-05-26T12:43:10.217Z,7.70
2018-05-26T12:44:10.235Z,9.00
2018-05-26T12:45:31.275Z,10.40
2018-05-26T12:46:10.261Z,4.80
2018-05-26T12:47:10.279Z,6.90
2018-05-26T12:48:10.292Z,6.10
2018-05-26T12:49:10.307Z,5.50
2018-05-26T12:50:10.330Z,7.00
2018-05-26T12:51:31.353Z,5.30
2018-05-26T12:52:10.360Z,5.70
2018-05-26T12:53:10.370Z,6.40
2018-05-26T12:54:10.388Z,6.10
2018-05-26T12:55:10.395Z,6.70
2018-05-26T12:56:10.403Z,7.80